sensor_id;sensor_type;location;lat;lon;timestamp;P1;durP1;ratioP1;P2;durP2;ratioP2
75932;SDS011;64803;52.356;5.310;2023-07-16T00:00:06;7.63;;;1.88;;
75932;SDS011;64803;52.356;5.310;2023-07-16T00:02:34;9.27;;;1.30;;
75932;SDS011;64803;52.356;5.310;2023-07-16T00:05:00;12.25;;;2.15;;
75932;SDS011;64803;52.356;5.310;2023-07-16T00:07:26;11.63;;;1.73;;
75932;SDS011;64803;52.356;5.310;2023-07-16T00:09:52;13.90;;;1.88;;
75932;SDS011;64803;52.356;5.310;2023-07-16T00:12:18;11.00;;;1.67;;
75932;SDS011;64803;52.356;5.310;2023-07-16T00:14:44;14.68;;;3.20;;
75932;SDS011;64803;52.356;5.310;2023-07-16T00:17:10;9.57;;;1.63;;
75932;SDS011;64803;52.356;5.310;2023-07-16T00:19:37;9.43;;;1.90;;
75932;SDS011;64803;52.356;5.310;2023-07-16T00:22:03;7.13;;;1.88;;
75932;SDS011;64803;52.356;5.310;2023-07-16T00:24:29;7.57;;;1.80;;
75932;SDS011;64803;52.356;5.310;2023-07-16T00:26:55;8.15;;;1.80;;
75932;SDS011;64803;52.356;5.310;2023-07-16T00:29:21;11.95;;;3.00;;
75932;SDS011;64803;52.356;5.310;2023-07-16T00:31:47;9.00;;;1.73;;
75932;SDS011;64803;52.356;5.310;2023-07-16T00:34:13;9.43;;;1.75;;
75932;SDS011;64803;52.356;5.310;2023-07-16T00:36:39;8.75;;;1.90;;
75932;SDS011;64803;52.356;5.310;2023-07-16T00:39:05;4.28;;;1.30;;
75932;SDS011;64803;52.356;5.310;2023-07-16T00:41:31;10.27;;;1.55;;
75932;SDS011;64803;52.356;5.310;2023-07-16T00:43:57;8.90;;;1.85;;
75932;SDS011;64803;52.356;5.310;2023-07-16T00:46:23;9.95;;;1.77;;
75932;SDS011;64803;52.356;5.310;2023-07-16T00:48:50;9.50;;;1.90;;
75932;SDS011;64803;52.356;5.310;2023-07-16T00:51:17;7.57;;;1.80;;
75932;SDS011;64803;52.356;5.310;2023-07-16T00:53:44;7.97;;;2.00;;
75932;SDS011;64803;52.356;5.310;2023-07-16T00:56:11;7.85;;;2.28;;
75932;SDS011;64803;52.356;5.310;2023-07-16T00:58:43;11.32;;;2.20;;
75932;SDS011;64803;52.356;5.310;2023-07-16T01:01:10;10.57;;;1.90;;
75932;SDS011;64803;52.356;5.310;2023-07-16T01:03:36;16.92;;;2.80;;
75932;SDS011;64803;52.356;5.310;2023-07-16T01:08:42;7.72;;;1.80;;
75932;SDS011;64803;52.356;5.310;2023-07-16T01:11:12;8.35;;;2.30;;
75932;SDS011;64803;52.356;5.310;2023-07-16T01:13:41;8.93;;;2.30;;
75932;SDS011;64803;52.356;5.310;2023-07-16T01:18:43;9.18;;;2.10;;
75932;SDS011;64803;52.356;5.310;2023-07-16T01:21:09;13.05;;;2.28;;
75932;SDS011;64803;52.356;5.310;2023-07-16T01:23:39;6.13;;;1.98;;
75932;SDS011;64803;52.356;5.310;2023-07-16T01:32:15;14.38;;;2.35;;
75932;SDS011;64803;52.356;5.310;2023-07-16T01:34:43;10.90;;;2.53;;
75932;SDS011;64803;52.356;5.310;2023-07-16T01:37:09;12.85;;;3.10;;
75932;SDS011;64803;52.356;5.310;2023-07-16T01:39:35;11.68;;;2.28;;
75932;SDS011;64803;52.356;5.310;2023-07-16T01:42:02;9.07;;;2.25;;
75932;SDS011;64803;52.356;5.310;2023-07-16T01:44:28;7.63;;;2.13;;
75932;SDS011;64803;52.356;5.310;2023-07-16T01:49:30;8.07;;;2.22;;
75932;SDS011;64803;52.356;5.310;2023-07-16T01:51:56;11.77;;;2.50;;
75932;SDS011;64803;52.356;5.310;2023-07-16T01:54:22;8.07;;;2.20;;
75932;SDS011;64803;52.356;5.310;2023-07-16T01:56:48;12.88;;;2.83;;
75932;SDS011;64803;52.356;5.310;2023-07-16T01:59:14;10.60;;;2.38;;
75932;SDS011;64803;52.356;5.310;2023-07-16T02:01:40;11.18;;;2.50;;
75932;SDS011;64803;52.356;5.310;2023-07-16T02:04:06;10.32;;;2.40;;
75932;SDS011;64803;52.356;5.310;2023-07-16T02:06:34;11.15;;;2.60;;
75932;SDS011;64803;52.356;5.310;2023-07-16T02:09:00;10.57;;;2.88;;
75932;SDS011;64803;52.356;5.310;2023-07-16T02:11:26;12.32;;;3.25;;
75932;SDS011;64803;52.356;5.310;2023-07-16T02:13:52;11.52;;;3.05;;
75932;SDS011;64803;52.356;5.310;2023-07-16T02:16:18;11.10;;;2.92;;
75932;SDS011;64803;52.356;5.310;2023-07-16T02:18:43;12.10;;;3.00;;
75932;SDS011;64803;52.356;5.310;2023-07-16T02:21:09;11.77;;;3.35;;
75932;SDS011;64803;52.356;5.310;2023-07-16T02:23:35;11.07;;;2.40;;
75932;SDS011;64803;52.356;5.310;2023-07-16T02:26:01;11.38;;;3.53;;
75932;SDS011;64803;52.356;5.310;2023-07-16T02:28:27;13.27;;;3.47;;
75932;SDS011;64803;52.356;5.310;2023-07-16T02:30:53;11.48;;;2.92;;
75932;SDS011;64803;52.356;5.310;2023-07-16T02:33:20;10.27;;;3.30;;
75932;SDS011;64803;52.356;5.310;2023-07-16T02:35:46;9.05;;;3.00;;
75932;SDS011;64803;52.356;5.310;2023-07-16T02:38:15;9.50;;;3.63;;
75932;SDS011;64803;52.356;5.310;2023-07-16T02:40:44;14.90;;;3.95;;
75932;SDS011;64803;52.356;5.310;2023-07-16T02:43:11;14.57;;;3.38;;
75932;SDS011;64803;52.356;5.310;2023-07-16T02:45:38;12.35;;;3.33;;
75932;SDS011;64803;52.356;5.310;2023-07-16T02:48:04;9.25;;;2.97;;
75932;SDS011;64803;52.356;5.310;2023-07-16T02:50:34;13.20;;;3.53;;
75932;SDS011;64803;52.356;5.310;2023-07-16T02:53:05;11.40;;;3.20;;
75932;SDS011;64803;52.356;5.310;2023-07-16T02:57:57;13.27;;;3.80;;
75932;SDS011;64803;52.356;5.310;2023-07-16T03:00:23;13.02;;;2.70;;
75932;SDS011;64803;52.356;5.310;2023-07-16T03:02:49;12.82;;;3.20;;
75932;SDS011;64803;52.356;5.310;2023-07-16T03:05:16;10.70;;;3.40;;
75932;SDS011;64803;52.356;5.310;2023-07-16T03:07:43;12.38;;;3.13;;
75932;SDS011;64803;52.356;5.310;2023-07-16T03:10:09;10.77;;;3.72;;
75932;SDS011;64803;52.356;5.310;2023-07-16T03:12:35;11.63;;;3.40;;
75932;SDS011;64803;52.356;5.310;2023-07-16T03:15:01;13.68;;;3.55;;
75932;SDS011;64803;52.356;5.310;2023-07-16T03:17:27;12.82;;;3.65;;
75932;SDS011;64803;52.356;5.310;2023-07-16T03:19:53;14.10;;;4.15;;
75932;SDS011;64803;52.356;5.310;2023-07-16T03:22:19;14.00;;;3.08;;
75932;SDS011;64803;52.356;5.310;2023-07-16T03:24:45;9.75;;;3.45;;
75932;SDS011;64803;52.356;5.310;2023-07-16T03:27:11;14.65;;;3.20;;
75932;SDS011;64803;52.356;5.310;2023-07-16T03:29:37;12.25;;;3.53;;
75932;SDS011;64803;52.356;5.310;2023-07-16T03:32:04;14.57;;;3.50;;
75932;SDS011;64803;52.356;5.310;2023-07-16T03:34:30;14.70;;;3.70;;
75932;SDS011;64803;52.356;5.310;2023-07-16T03:36:56;11.43;;;3.33;;
75932;SDS011;64803;52.356;5.310;2023-07-16T03:39:22;10.85;;;3.13;;
75932;SDS011;64803;52.356;5.310;2023-07-16T03:41:48;13.02;;;3.90;;
75932;SDS011;64803;52.356;5.310;2023-07-16T03:44:14;8.00;;;2.90;;
75932;SDS011;64803;52.356;5.310;2023-07-16T03:46:40;16.85;;;3.75;;
75932;SDS011;64803;52.356;5.310;2023-07-16T03:49:07;12.27;;;3.13;;
75932;SDS011;64803;52.356;5.310;2023-07-16T03:51:34;11.15;;;3.13;;
75932;SDS011;64803;52.356;5.310;2023-07-16T03:54:00;12.88;;;3.42;;
75932;SDS011;64803;52.356;5.310;2023-07-16T03:56:26;12.00;;;3.00;;
75932;SDS011;64803;52.356;5.310;2023-07-16T03:58:52;9.57;;;3.00;;
75932;SDS011;64803;52.356;5.310;2023-07-16T04:01:18;13.55;;;3.17;;
75932;SDS011;64803;52.356;5.310;2023-07-16T04:03:44;14.00;;;3.65;;
75932;SDS011;64803;52.356;5.310;2023-07-16T04:06:11;15.57;;;3.20;;
75932;SDS011;64803;52.356;5.310;2023-07-16T04:08:37;8.55;;;2.60;;
75932;SDS011;64803;52.356;5.310;2023-07-16T04:11:04;10.23;;;2.60;;
75932;SDS011;64803;52.356;5.310;2023-07-16T04:13:30;11.35;;;3.40;;
75932;SDS011;64803;52.356;5.310;2023-07-16T04:15:57;10.73;;;2.78;;
75932;SDS011;64803;52.356;5.310;2023-07-16T04:18:24;9.38;;;2.75;;
75932;SDS011;64803;52.356;5.310;2023-07-16T04:20:50;7.13;;;2.60;;
75932;SDS011;64803;52.356;5.310;2023-07-16T04:23:16;17.33;;;3.80;;
75932;SDS011;64803;52.356;5.310;2023-07-16T04:25:43;9.23;;;3.20;;
75932;SDS011;64803;52.356;5.310;2023-07-16T04:28:10;14.50;;;2.58;;
75932;SDS011;64803;52.356;5.310;2023-07-16T04:30:36;10.35;;;3.25;;
75932;SDS011;64803;52.356;5.310;2023-07-16T04:33:03;10.60;;;3.25;;
75932;SDS011;64803;52.356;5.310;2023-07-16T04:35:29;14.68;;;3.83;;
75932;SDS011;64803;52.356;5.310;2023-07-16T04:37:55;13.93;;;3.83;;
75932;SDS011;64803;52.356;5.310;2023-07-16T04:40:22;8.65;;;3.40;;
75932;SDS011;64803;52.356;5.310;2023-07-16T04:42:48;11.43;;;3.78;;
75932;SDS011;64803;52.356;5.310;2023-07-16T04:45:14;14.95;;;3.78;;
75932;SDS011;64803;52.356;5.310;2023-07-16T04:47:40;16.42;;;3.67;;
75932;SDS011;64803;52.356;5.310;2023-07-16T04:50:06;8.73;;;3.60;;
75932;SDS011;64803;52.356;5.310;2023-07-16T04:52:32;12.00;;;3.65;;
75932;SDS011;64803;52.356;5.310;2023-07-16T04:54:58;13.18;;;3.83;;
75932;SDS011;64803;52.356;5.310;2023-07-16T04:57:24;15.00;;;4.13;;
75932;SDS011;64803;52.356;5.310;2023-07-16T04:59:50;8.60;;;2.45;;
75932;SDS011;64803;52.356;5.310;2023-07-16T05:02:17;11.18;;;3.33;;
75932;SDS011;64803;52.356;5.310;2023-07-16T05:04:43;15.02;;;3.92;;
75932;SDS011;64803;52.356;5.310;2023-07-16T05:07:10;10.10;;;3.30;;
75932;SDS011;64803;52.356;5.310;2023-07-16T05:09:36;15.30;;;4.53;;
75932;SDS011;64803;52.356;5.310;2023-07-16T05:12:02;13.63;;;3.50;;
75932;SDS011;64803;52.356;5.310;2023-07-16T05:14:28;13.07;;;3.90;;
75932;SDS011;64803;52.356;5.310;2023-07-16T05:16:55;13.32;;;4.57;;
75932;SDS011;64803;52.356;5.310;2023-07-16T05:19:22;12.20;;;4.43;;
75932;SDS011;64803;52.356;5.310;2023-07-16T05:21:48;13.70;;;5.32;;
75932;SDS011;64803;52.356;5.310;2023-07-16T05:24:14;9.63;;;3.50;;
75932;SDS011;64803;52.356;5.310;2023-07-16T05:26:40;11.07;;;3.15;;
75932;SDS011;64803;52.356;5.310;2023-07-16T05:29:06;11.73;;;4.57;;
75932;SDS011;64803;52.356;5.310;2023-07-16T05:31:32;11.45;;;3.85;;
75932;SDS011;64803;52.356;5.310;2023-07-16T05:33:58;15.18;;;4.95;;
75932;SDS011;64803;52.356;5.310;2023-07-16T05:36:24;13.65;;;4.45;;
75932;SDS011;64803;52.356;5.310;2023-07-16T05:38:50;13.60;;;4.13;;
75932;SDS011;64803;52.356;5.310;2023-07-16T05:41:16;10.27;;;3.63;;
75932;SDS011;64803;52.356;5.310;2023-07-16T05:43:42;9.27;;;3.30;;
75932;SDS011;64803;52.356;5.310;2023-07-16T05:46:08;9.27;;;3.42;;
75932;SDS011;64803;52.356;5.310;2023-07-16T05:48:34;12.80;;;3.35;;
75932;SDS011;64803;52.356;5.310;2023-07-16T05:51:00;10.95;;;3.65;;
75932;SDS011;64803;52.356;5.310;2023-07-16T05:53:26;10.65;;;3.60;;
75932;SDS011;64803;52.356;5.310;2023-07-16T05:55:52;11.68;;;3.47;;
75932;SDS011;64803;52.356;5.310;2023-07-16T05:58:18;10.63;;;3.50;;
75932;SDS011;64803;52.356;5.310;2023-07-16T06:00:44;10.60;;;3.60;;
75932;SDS011;64803;52.356;5.310;2023-07-16T06:03:10;10.68;;;4.00;;
75932;SDS011;64803;52.356;5.310;2023-07-16T06:05:36;13.13;;;4.00;;
75932;SDS011;64803;52.356;5.310;2023-07-16T06:08:03;10.63;;;3.20;;
75932;SDS011;64803;52.356;5.310;2023-07-16T06:10:29;9.98;;;3.58;;
75932;SDS011;64803;52.356;5.310;2023-07-16T06:12:55;14.45;;;4.15;;
75932;SDS011;64803;52.356;5.310;2023-07-16T06:15:21;10.68;;;3.92;;
75932;SDS011;64803;52.356;5.310;2023-07-16T06:17:48;15.80;;;5.28;;
75932;SDS011;64803;52.356;5.310;2023-07-16T06:20:14;12.02;;;3.92;;
75932;SDS011;64803;52.356;5.310;2023-07-16T06:22:40;10.52;;;2.80;;
75932;SDS011;64803;52.356;5.310;2023-07-16T06:25:06;10.20;;;3.17;;
75932;SDS011;64803;52.356;5.310;2023-07-16T06:27:33;11.18;;;4.28;;
75932;SDS011;64803;52.356;5.310;2023-07-16T06:29:59;13.50;;;4.55;;
75932;SDS011;64803;52.356;5.310;2023-07-16T06:32:25;9.48;;;3.75;;
75932;SDS011;64803;52.356;5.310;2023-07-16T06:34:51;12.07;;;3.92;;
75932;SDS011;64803;52.356;5.310;2023-07-16T06:37:17;8.75;;;2.53;;
75932;SDS011;64803;52.356;5.310;2023-07-16T06:39:43;10.85;;;3.67;;
75932;SDS011;64803;52.356;5.310;2023-07-16T06:42:09;20.27;;;5.05;;
75932;SDS011;64803;52.356;5.310;2023-07-16T06:44:35;12.10;;;3.28;;
75932;SDS011;64803;52.356;5.310;2023-07-16T06:47:01;13.15;;;3.30;;
75932;SDS011;64803;52.356;5.310;2023-07-16T06:49:29;15.55;;;5.22;;
75932;SDS011;64803;52.356;5.310;2023-07-16T06:51:55;12.07;;;3.47;;
75932;SDS011;64803;52.356;5.310;2023-07-16T06:54:21;18.48;;;5.32;;
75932;SDS011;64803;52.356;5.310;2023-07-16T06:56:47;13.63;;;4.47;;
75932;SDS011;64803;52.356;5.310;2023-07-16T06:59:13;12.00;;;4.65;;
75932;SDS011;64803;52.356;5.310;2023-07-16T07:01:39;12.80;;;4.32;;
75932;SDS011;64803;52.356;5.310;2023-07-16T07:04:05;12.43;;;4.00;;
75932;SDS011;64803;52.356;5.310;2023-07-16T07:06:31;13.20;;;4.18;;
75932;SDS011;64803;52.356;5.310;2023-07-16T07:08:57;11.43;;;3.47;;
75932;SDS011;64803;52.356;5.310;2023-07-16T07:11:24;10.60;;;3.60;;
75932;SDS011;64803;52.356;5.310;2023-07-16T07:13:51;17.63;;;4.95;;
75932;SDS011;64803;52.356;5.310;2023-07-16T07:18:43;14.90;;;4.40;;
75932;SDS011;64803;52.356;5.310;2023-07-16T07:21:09;16.30;;;4.60;;
75932;SDS011;64803;52.356;5.310;2023-07-16T07:23:35;14.52;;;3.38;;
75932;SDS011;64803;52.356;5.310;2023-07-16T07:26:01;14.00;;;4.80;;
75932;SDS011;64803;52.356;5.310;2023-07-16T07:28:27;9.98;;;3.67;;
75932;SDS011;64803;52.356;5.310;2023-07-16T07:30:53;10.93;;;4.35;;
75932;SDS011;64803;52.356;5.310;2023-07-16T07:33:20;13.35;;;3.97;;
75932;SDS011;64803;52.356;5.310;2023-07-16T07:35:46;14.65;;;3.90;;
75932;SDS011;64803;52.356;5.310;2023-07-16T07:38:12;13.80;;;5.18;;
75932;SDS011;64803;52.356;5.310;2023-07-16T07:40:38;15.05;;;4.97;;
75932;SDS011;64803;52.356;5.310;2023-07-16T07:43:04;12.65;;;4.40;;
75932;SDS011;64803;52.356;5.310;2023-07-16T07:45:30;11.77;;;3.67;;
75932;SDS011;64803;52.356;5.310;2023-07-16T07:47:56;12.68;;;4.35;;
75932;SDS011;64803;52.356;5.310;2023-07-16T07:50:22;10.85;;;4.55;;
75932;SDS011;64803;52.356;5.310;2023-07-16T07:52:48;14.00;;;4.10;;
75932;SDS011;64803;52.356;5.310;2023-07-16T07:55:14;14.52;;;4.55;;
75932;SDS011;64803;52.356;5.310;2023-07-16T07:57:40;12.65;;;4.47;;
75932;SDS011;64803;52.356;5.310;2023-07-16T08:00:07;12.10;;;3.38;;
75932;SDS011;64803;52.356;5.310;2023-07-16T08:02:38;8.32;;;3.08;;
75932;SDS011;64803;52.356;5.310;2023-07-16T08:05:04;10.40;;;3.63;;
75932;SDS011;64803;52.356;5.310;2023-07-16T08:07:30;12.25;;;3.20;;
75932;SDS011;64803;52.356;5.310;2023-07-16T08:09:56;12.90;;;4.50;;
75932;SDS011;64803;52.356;5.310;2023-07-16T08:12:22;13.80;;;4.22;;
75932;SDS011;64803;52.356;5.310;2023-07-16T08:14:49;10.63;;;3.55;;
75932;SDS011;64803;52.356;5.310;2023-07-16T08:17:15;10.95;;;4.53;;
75932;SDS011;64803;52.356;5.310;2023-07-16T08:19:41;13.50;;;4.70;;
75932;SDS011;64803;52.356;5.310;2023-07-16T08:22:07;17.30;;;5.20;;
75932;SDS011;64803;52.356;5.310;2023-07-16T08:24:33;14.00;;;4.35;;
75932;SDS011;64803;52.356;5.310;2023-07-16T08:26:59;13.60;;;4.38;;
75932;SDS011;64803;52.356;5.310;2023-07-16T08:29:25;14.68;;;5.45;;
75932;SDS011;64803;52.356;5.310;2023-07-16T08:31:51;13.23;;;4.55;;
75932;SDS011;64803;52.356;5.310;2023-07-16T08:34:17;18.08;;;5.38;;
75932;SDS011;64803;52.356;5.310;2023-07-16T08:36:43;17.27;;;5.60;;
75932;SDS011;64803;52.356;5.310;2023-07-16T08:39:09;9.95;;;3.95;;
75932;SDS011;64803;52.356;5.310;2023-07-16T08:41:35;19.95;;;5.05;;
75932;SDS011;64803;52.356;5.310;2023-07-16T08:44:01;12.00;;;4.63;;
75932;SDS011;64803;52.356;5.310;2023-07-16T08:46:27;14.57;;;5.70;;
75932;SDS011;64803;52.356;5.310;2023-07-16T08:48:54;15.57;;;4.97;;
75932;SDS011;64803;52.356;5.310;2023-07-16T08:51:20;17.58;;;4.90;;
75932;SDS011;64803;52.356;5.310;2023-07-16T08:53:47;11.18;;;4.10;;
75932;SDS011;64803;52.356;5.310;2023-07-16T08:56:13;10.88;;;4.97;;
75932;SDS011;64803;52.356;5.310;2023-07-16T08:58:40;13.82;;;4.78;;
75932;SDS011;64803;52.356;5.310;2023-07-16T09:01:10;13.52;;;4.55;;
75932;SDS011;64803;52.356;5.310;2023-07-16T09:03:36;16.13;;;4.90;;
75932;SDS011;64803;52.356;5.310;2023-07-16T09:06:03;12.05;;;4.53;;
75932;SDS011;64803;52.356;5.310;2023-07-16T09:10:55;14.93;;;4.75;;
75932;SDS011;64803;52.356;5.310;2023-07-16T09:13:22;17.42;;;4.95;;
75932;SDS011;64803;52.356;5.310;2023-07-16T09:15:54;12.23;;;4.53;;
75932;SDS011;64803;52.356;5.310;2023-07-16T09:18:25;10.75;;;3.85;;
75932;SDS011;64803;52.356;5.310;2023-07-16T09:20:58;12.65;;;4.70;;
75932;SDS011;64803;52.356;5.310;2023-07-16T09:23:29;12.60;;;4.43;;
75932;SDS011;64803;52.356;5.310;2023-07-16T09:25:56;11.68;;;4.05;;
75932;SDS011;64803;52.356;5.310;2023-07-16T09:28:22;16.17;;;4.95;;
75932;SDS011;64803;52.356;5.310;2023-07-16T09:30:49;12.65;;;4.40;;
75932;SDS011;64803;52.356;5.310;2023-07-16T09:33:17;10.38;;;3.45;;
75932;SDS011;64803;52.356;5.310;2023-07-16T09:35:47;13.00;;;4.50;;
75932;SDS011;64803;52.356;5.310;2023-07-16T09:38:14;14.93;;;4.80;;
75932;SDS011;64803;52.356;5.310;2023-07-16T09:40:42;11.73;;;4.47;;
75932;SDS011;64803;52.356;5.310;2023-07-16T09:43:11;12.45;;;4.47;;
75932;SDS011;64803;52.356;5.310;2023-07-16T09:45:38;15.85;;;4.20;;
75932;SDS011;64803;52.356;5.310;2023-07-16T09:48:04;10.80;;;4.28;;
75932;SDS011;64803;52.356;5.310;2023-07-16T09:50:32;12.38;;;4.70;;
75932;SDS011;64803;52.356;5.310;2023-07-16T09:52:59;15.35;;;5.15;;
75932;SDS011;64803;52.356;5.310;2023-07-16T09:55:25;13.68;;;4.35;;
75932;SDS011;64803;52.356;5.310;2023-07-16T09:57:53;13.50;;;5.72;;
75932;SDS011;64803;52.356;5.310;2023-07-16T10:00:23;12.90;;;4.50;;
75932;SDS011;64803;52.356;5.310;2023-07-16T10:02:51;11.20;;;4.10;;
75932;SDS011;64803;52.356;5.310;2023-07-16T10:07:51;14.40;;;4.82;;
75932;SDS011;64803;52.356;5.310;2023-07-16T10:10:20;12.02;;;4.78;;
75932;SDS011;64803;52.356;5.310;2023-07-16T10:12:56;14.13;;;5.20;;
75932;SDS011;64803;52.356;5.310;2023-07-16T10:15:24;12.27;;;3.97;;
75932;SDS011;64803;52.356;5.310;2023-07-16T10:17:52;10.93;;;4.07;;
75932;SDS011;64803;52.356;5.310;2023-07-16T10:20:27;13.05;;;4.13;;
75932;SDS011;64803;52.356;5.310;2023-07-16T10:23:12;12.32;;;4.60;;
75932;SDS011;64803;52.356;5.310;2023-07-16T10:25:39;16.88;;;4.60;;
75932;SDS011;64803;52.356;5.310;2023-07-16T10:28:06;10.30;;;4.05;;
75932;SDS011;64803;52.356;5.310;2023-07-16T10:30:32;14.00;;;4.00;;
75932;SDS011;64803;52.356;5.310;2023-07-16T10:33:03;11.77;;;3.53;;
75932;SDS011;64803;52.356;5.310;2023-07-16T10:35:40;11.43;;;4.40;;
75932;SDS011;64803;52.356;5.310;2023-07-16T10:38:07;14.00;;;3.88;;
75932;SDS011;64803;52.356;5.310;2023-07-16T10:40:33;10.02;;;4.07;;
75932;SDS011;64803;52.356;5.310;2023-07-16T10:43:06;11.40;;;3.58;;
75932;SDS011;64803;52.356;5.310;2023-07-16T10:45:32;9.75;;;3.63;;
75932;SDS011;64803;52.356;5.310;2023-07-16T10:47:59;11.07;;;3.75;;
75932;SDS011;64803;52.356;5.310;2023-07-16T10:50:25;10.80;;;3.75;;
75932;SDS011;64803;52.356;5.310;2023-07-16T10:52:56;10.98;;;3.55;;
75932;SDS011;64803;52.356;5.310;2023-07-16T10:55:23;14.23;;;3.25;;
75932;SDS011;64803;52.356;5.310;2023-07-16T10:57:51;11.07;;;4.30;;
75932;SDS011;64803;52.356;5.310;2023-07-16T11:00:19;12.52;;;4.35;;
75932;SDS011;64803;52.356;5.310;2023-07-16T11:02:48;10.02;;;3.65;;
75932;SDS011;64803;52.356;5.310;2023-07-16T11:05:16;10.15;;;3.47;;
75932;SDS011;64803;52.356;5.310;2023-07-16T11:07:45;16.33;;;3.58;;
75932;SDS011;64803;52.356;5.310;2023-07-16T11:10:15;10.55;;;3.58;;
75932;SDS011;64803;52.356;5.310;2023-07-16T11:12:41;13.75;;;3.97;;
75932;SDS011;64803;52.356;5.310;2023-07-16T11:15:08;8.15;;;2.95;;
75932;SDS011;64803;52.356;5.310;2023-07-16T11:17:37;9.77;;;3.90;;
75932;SDS011;64803;52.356;5.310;2023-07-16T11:20:06;11.30;;;3.53;;
75932;SDS011;64803;52.356;5.310;2023-07-16T11:22:36;12.35;;;3.55;;
75932;SDS011;64803;52.356;5.310;2023-07-16T11:25:03;12.95;;;3.33;;
75932;SDS011;64803;52.356;5.310;2023-07-16T11:27:32;8.93;;;3.35;;
75932;SDS011;64803;52.356;5.310;2023-07-16T11:30:00;10.02;;;2.70;;
75932;SDS011;64803;52.356;5.310;2023-07-16T11:34:53;10.77;;;3.00;;
75932;SDS011;64803;52.356;5.310;2023-07-16T11:37:19;11.63;;;3.78;;
75932;SDS011;64803;52.356;5.310;2023-07-16T11:39:46;12.23;;;3.20;;
75932;SDS011;64803;52.356;5.310;2023-07-16T11:44:40;9.93;;;2.60;;
75932;SDS011;64803;52.356;5.310;2023-07-16T11:47:06;7.97;;;2.45;;
75932;SDS011;64803;52.356;5.310;2023-07-16T11:49:32;7.50;;;2.40;;
75932;SDS011;64803;52.356;5.310;2023-07-16T11:51:58;8.40;;;2.65;;
75932;SDS011;64803;52.356;5.310;2023-07-16T11:54:25;10.13;;;2.70;;
75932;SDS011;64803;52.356;5.310;2023-07-16T11:56:51;10.18;;;3.03;;
75932;SDS011;64803;52.356;5.310;2023-07-16T11:59:17;9.35;;;2.25;;
75932;SDS011;64803;52.356;5.310;2023-07-16T12:01:46;7.55;;;2.67;;
75932;SDS011;64803;52.356;5.310;2023-07-16T12:04:15;12.73;;;2.88;;
75932;SDS011;64803;52.356;5.310;2023-07-16T12:06:43;9.40;;;2.20;;
75932;SDS011;64803;52.356;5.310;2023-07-16T12:09:09;9.02;;;2.90;;
75932;SDS011;64803;52.356;5.310;2023-07-16T12:11:35;9.55;;;2.42;;
75932;SDS011;64803;52.356;5.310;2023-07-16T12:14:04;8.20;;;2.33;;
75932;SDS011;64803;52.356;5.310;2023-07-16T12:16:31;9.38;;;2.67;;
75932;SDS011;64803;52.356;5.310;2023-07-16T12:18:57;12.48;;;3.40;;
75932;SDS011;64803;52.356;5.310;2023-07-16T12:21:23;12.02;;;3.08;;
75932;SDS011;64803;52.356;5.310;2023-07-16T12:23:49;9.73;;;3.08;;
75932;SDS011;64803;52.356;5.310;2023-07-16T12:26:15;8.20;;;2.47;;
75932;SDS011;64803;52.356;5.310;2023-07-16T12:28:41;9.40;;;2.28;;
75932;SDS011;64803;52.356;5.310;2023-07-16T12:31:07;9.52;;;2.70;;
75932;SDS011;64803;52.356;5.310;2023-07-16T12:33:33;9.18;;;2.45;;
75932;SDS011;64803;52.356;5.310;2023-07-16T12:35:59;9.88;;;2.88;;
75932;SDS011;64803;52.356;5.310;2023-07-16T12:38:25;7.63;;;2.72;;
75932;SDS011;64803;52.356;5.310;2023-07-16T12:40:51;9.30;;;2.58;;
75932;SDS011;64803;52.356;5.310;2023-07-16T12:43:17;7.78;;;2.05;;
75932;SDS011;64803;52.356;5.310;2023-07-16T12:45:43;12.73;;;3.08;;
75932;SDS011;64803;52.356;5.310;2023-07-16T12:48:09;8.55;;;2.45;;
75932;SDS011;64803;52.356;5.310;2023-07-16T12:50:34;9.40;;;3.30;;
75932;SDS011;64803;52.356;5.310;2023-07-16T12:53:02;7.00;;;2.25;;
75932;SDS011;64803;52.356;5.310;2023-07-16T12:57:54;9.85;;;2.13;;
75932;SDS011;64803;52.356;5.310;2023-07-16T13:00:20;11.98;;;2.20;;
75932;SDS011;64803;52.356;5.310;2023-07-16T13:02:46;11.10;;;1.77;;
75932;SDS011;64803;52.356;5.310;2023-07-16T13:05:12;9.75;;;2.08;;
75932;SDS011;64803;52.356;5.310;2023-07-16T13:07:38;11.07;;;2.78;;
75932;SDS011;64803;52.356;5.310;2023-07-16T13:10:04;8.68;;;2.35;;
75932;SDS011;64803;52.356;5.310;2023-07-16T13:14:57;10.38;;;2.92;;
75932;SDS011;64803;52.356;5.310;2023-07-16T13:17:23;4.95;;;1.52;;
75932;SDS011;64803;52.356;5.310;2023-07-16T13:19:49;9.63;;;2.03;;
75932;SDS011;64803;52.356;5.310;2023-07-16T13:22:15;8.60;;;1.95;;
75932;SDS011;64803;52.356;5.310;2023-07-16T13:24:41;8.75;;;2.28;;
75932;SDS011;64803;52.356;5.310;2023-07-16T13:27:09;7.97;;;1.60;;
75932;SDS011;64803;52.356;5.310;2023-07-16T13:29:36;8.55;;;1.90;;
75932;SDS011;64803;52.356;5.310;2023-07-16T13:32:02;11.57;;;2.30;;
75932;SDS011;64803;52.356;5.310;2023-07-16T13:34:28;6.65;;;1.45;;
75932;SDS011;64803;52.356;5.310;2023-07-16T13:36:54;9.65;;;1.98;;
75932;SDS011;64803;52.356;5.310;2023-07-16T13:39:20;8.43;;;1.88;;
75932;SDS011;64803;52.356;5.310;2023-07-16T13:41:46;12.43;;;2.17;;
75932;SDS011;64803;52.356;5.310;2023-07-16T13:44:12;14.10;;;1.65;;
75932;SDS011;64803;52.356;5.310;2023-07-16T13:46:38;8.80;;;1.75;;
75932;SDS011;64803;52.356;5.310;2023-07-16T13:49:06;10.05;;;1.27;;
75932;SDS011;64803;52.356;5.310;2023-07-16T13:51:32;9.75;;;1.80;;
75932;SDS011;64803;52.356;5.310;2023-07-16T13:53:58;7.88;;;1.65;;
75932;SDS011;64803;52.356;5.310;2023-07-16T13:56:24;9.57;;;1.75;;
75932;SDS011;64803;52.356;5.310;2023-07-16T13:58:50;12.93;;;2.03;;
75932;SDS011;64803;52.356;5.310;2023-07-16T14:01:16;12.18;;;1.75;;
75932;SDS011;64803;52.356;5.310;2023-07-16T14:03:43;14.20;;;1.98;;
75932;SDS011;64803;52.356;5.310;2023-07-16T14:06:09;10.32;;;1.75;;
75932;SDS011;64803;52.356;5.310;2023-07-16T14:08:36;10.95;;;1.92;;
75932;SDS011;64803;52.356;5.310;2023-07-16T14:11:02;14.15;;;2.10;;
75932;SDS011;64803;52.356;5.310;2023-07-16T14:13:28;8.00;;;1.50;;
75932;SDS011;64803;52.356;5.310;2023-07-16T14:15:54;8.68;;;1.45;;
75932;SDS011;64803;52.356;5.310;2023-07-16T14:18:20;11.55;;;1.77;;
75932;SDS011;64803;52.356;5.310;2023-07-16T14:20:46;10.38;;;1.77;;
75932;SDS011;64803;52.356;5.310;2023-07-16T14:23:12;12.70;;;1.80;;
75932;SDS011;64803;52.356;5.310;2023-07-16T14:25:38;10.65;;;1.75;;
75932;SDS011;64803;52.356;5.310;2023-07-16T14:28:04;8.23;;;1.63;;
75932;SDS011;64803;52.356;5.310;2023-07-16T14:30:30;12.80;;;1.80;;
75932;SDS011;64803;52.356;5.310;2023-07-16T14:32:56;9.65;;;1.80;;
75932;SDS011;64803;52.356;5.310;2023-07-16T14:35:24;7.45;;;1.27;;
75932;SDS011;64803;52.356;5.310;2023-07-16T14:37:51;11.45;;;2.40;;
75932;SDS011;64803;52.356;5.310;2023-07-16T14:40:17;12.70;;;2.13;;
75932;SDS011;64803;52.356;5.310;2023-07-16T14:42:43;14.23;;;2.55;;
75932;SDS011;64803;52.356;5.310;2023-07-16T14:45:09;11.70;;;1.83;;
75932;SDS011;64803;52.356;5.310;2023-07-16T14:47:36;8.90;;;1.67;;
75932;SDS011;64803;52.356;5.310;2023-07-16T14:50:02;8.48;;;1.45;;
75932;SDS011;64803;52.356;5.310;2023-07-16T14:52:28;14.25;;;1.98;;
75932;SDS011;64803;52.356;5.310;2023-07-16T14:54:54;8.25;;;2.08;;
75932;SDS011;64803;52.356;5.310;2023-07-16T14:57:20;8.45;;;1.35;;
75932;SDS011;64803;52.356;5.310;2023-07-16T14:59:46;10.82;;;1.55;;
75932;SDS011;64803;52.356;5.310;2023-07-16T15:02:12;12.48;;;1.92;;
75932;SDS011;64803;52.356;5.310;2023-07-16T15:04:38;13.55;;;1.92;;
75932;SDS011;64803;52.356;5.310;2023-07-16T15:07:05;10.55;;;1.77;;